sensor_id;sensor_type;location;lat;lon;timestamp;P1;durP1;ratioP1;P2;durP2;ratioP2
22904;SDS011;11619;50.140;8.518;2024-02-14T00:00:19;6.95;;;6.00;;
22904;SDS011;11619;50.140;8.518;2024-02-14T00:02:47;7.80;;;5.72;;
22904;SDS011;11619;50.140;8.518;2024-02-14T00:05:16;7.03;;;5.63;;
22904;SDS011;11619;50.140;8.518;2024-02-14T00:07:43;8.07;;;5.88;;
22904;SDS011;11619;50.140;8.518;2024-02-14T00:10:09;12.30;;;6.53;;
22904;SDS011;11619;50.140;8.518;2024-02-14T00:12:36;7.35;;;6.00;;
22904;SDS011;11619;50.140;8.518;2024-02-14T00:15:03;9.13;;;6.03;;
22904;SDS011;11619;50.140;8.518;2024-02-14T00:17:32;6.82;;;5.93;;
22904;SDS011;11619;50.140;8.518;2024-02-14T00:20:03;9.38;;;6.32;;
22904;SDS011;11619;50.140;8.518;2024-02-14T00:22:30;6.07;;;5.32;;
22904;SDS011;11619;50.140;8.518;2024-02-14T00:24:57;7.63;;;5.43;;
22904;SDS011;11619;50.140;8.518;2024-02-14T00:27:23;8.98;;;5.75;;
22904;SDS011;11619;50.140;8.518;2024-02-14T00:29:52;8.15;;;6.18;;
22904;SDS011;11619;50.140;8.518;2024-02-14T00:32:20;7.28;;;6.53;;
22904;SDS011;11619;50.140;8.518;2024-02-14T00:34:46;6.60;;;5.75;;
22904;SDS011;11619;50.140;8.518;2024-02-14T00:37:13;7.80;;;6.28;;
22904;SDS011;11619;50.140;8.518;2024-02-14T00:39:40;6.78;;;5.65;;
22904;SDS011;11619;50.140;8.518;2024-02-14T00:42:06;8.00;;;5.63;;
22904;SDS011;11619;50.140;8.518;2024-02-14T00:44:33;6.18;;;5.50;;
22904;SDS011;11619;50.140;8.518;2024-02-14T00:46:59;9.75;;;6.07;;
22904;SDS011;11619;50.140;8.518;2024-02-14T00:49:27;8.68;;;5.85;;
22904;SDS011;11619;50.140;8.518;2024-02-14T00:51:54;7.75;;;5.20;;
22904;SDS011;11619;50.140;8.518;2024-02-14T00:54:21;5.57;;;4.43;;
22904;SDS011;11619;50.140;8.518;2024-02-14T00:56:47;7.47;;;4.63;;
22904;SDS011;11619;50.140;8.518;2024-02-14T00:59:14;6.88;;;4.72;;
22904;SDS011;11619;50.140;8.518;2024-02-14T01:01:40;4.97;;;4.32;;
22904;SDS011;11619;50.140;8.518;2024-02-14T01:04:07;8.45;;;4.20;;
22904;SDS011;11619;50.140;8.518;2024-02-14T01:06:34;3.72;;;3.40;;
22904;SDS011;11619;50.140;8.518;2024-02-14T01:09:03;4.95;;;3.63;;
22904;SDS011;11619;50.140;8.518;2024-02-14T01:11:30;5.25;;;3.80;;
22904;SDS011;11619;50.140;8.518;2024-02-14T01:13:56;6.55;;;3.30;;
22904;SDS011;11619;50.140;8.518;2024-02-14T01:16:24;10.43;;;4.00;;
22904;SDS011;11619;50.140;8.518;2024-02-14T01:18:51;5.55;;;3.92;;
22904;SDS011;11619;50.140;8.518;2024-02-14T01:21:17;3.80;;;3.25;;
22904;SDS011;11619;50.140;8.518;2024-02-14T01:23:44;4.45;;;3.65;;
22904;SDS011;11619;50.140;8.518;2024-02-14T01:26:10;6.55;;;3.47;;
22904;SDS011;11619;50.140;8.518;2024-02-14T01:28:37;6.75;;;3.47;;
22904;SDS011;11619;50.140;8.518;2024-02-14T01:31:04;7.00;;;3.63;;
22904;SDS011;11619;50.140;8.518;2024-02-14T01:33:30;8.90;;;3.30;;
22904;SDS011;11619;50.140;8.518;2024-02-14T01:35:57;5.03;;;3.33;;
22904;SDS011;11619;50.140;8.518;2024-02-14T01:38:24;6.13;;;3.55;;
22904;SDS011;11619;50.140;8.518;2024-02-14T01:40:50;4.15;;;3.22;;
22904;SDS011;11619;50.140;8.518;2024-02-14T01:43:19;4.47;;;3.03;;
22904;SDS011;11619;50.140;8.518;2024-02-14T01:45:46;4.05;;;3.33;;
22904;SDS011;11619;50.140;8.518;2024-02-14T01:48:12;4.97;;;3.50;;
22904;SDS011;11619;50.140;8.518;2024-02-14T01:50:44;3.90;;;3.35;;
22904;SDS011;11619;50.140;8.518;2024-02-14T01:53:12;7.22;;;3.60;;
22904;SDS011;11619;50.140;8.518;2024-02-14T01:55:38;3.78;;;3.40;;
22904;SDS011;11619;50.140;8.518;2024-02-14T01:58:05;4.75;;;3.40;;
22904;SDS011;11619;50.140;8.518;2024-02-14T02:00:32;6.28;;;3.80;;
22904;SDS011;11619;50.140;8.518;2024-02-14T02:03:00;5.55;;;3.42;;
22904;SDS011;11619;50.140;8.518;2024-02-14T02:05:26;4.35;;;3.70;;
22904;SDS011;11619;50.140;8.518;2024-02-14T02:07:53;5.10;;;3.83;;
22904;SDS011;11619;50.140;8.518;2024-02-14T02:10:20;4.47;;;3.20;;
22904;SDS011;11619;50.140;8.518;2024-02-14T02:12:48;6.22;;;3.70;;
22904;SDS011;11619;50.140;8.518;2024-02-14T02:15:17;4.88;;;3.40;;
22904;SDS011;11619;50.140;8.518;2024-02-14T02:17:44;7.43;;;4.00;;
22904;SDS011;11619;50.140;8.518;2024-02-14T02:20:12;8.77;;;4.55;;
22904;SDS011;11619;50.140;8.518;2024-02-14T02:22:41;7.72;;;3.92;;
22904;SDS011;11619;50.140;8.518;2024-02-14T02:25:10;6.97;;;4.72;;
22904;SDS011;11619;50.140;8.518;2024-02-14T02:27:37;5.35;;;3.83;;
22904;SDS011;11619;50.140;8.518;2024-02-14T02:30:04;5.90;;;4.25;;
22904;SDS011;11619;50.140;8.518;2024-02-14T02:32:32;8.07;;;4.70;;
22904;SDS011;11619;50.140;8.518;2024-02-14T02:34:59;6.35;;;4.75;;
22904;SDS011;11619;50.140;8.518;2024-02-14T02:37:26;10.65;;;4.75;;
22904;SDS011;11619;50.140;8.518;2024-02-14T02:39:55;7.53;;;4.75;;
22904;SDS011;11619;50.140;8.518;2024-02-14T02:42:22;5.55;;;4.55;;
22904;SDS011;11619;50.140;8.518;2024-02-14T02:44:50;8.30;;;4.72;;
22904;SDS011;11619;50.140;8.518;2024-02-14T02:47:17;6.20;;;4.63;;
22904;SDS011;11619;50.140;8.518;2024-02-14T02:49:43;9.02;;;4.93;;
22904;SDS011;11619;50.140;8.518;2024-02-14T02:52:10;5.07;;;4.47;;
22904;SDS011;11619;50.140;8.518;2024-02-14T02:54:37;7.45;;;4.85;;
22904;SDS011;11619;50.140;8.518;2024-02-14T02:57:07;6.47;;;5.13;;
22904;SDS011;11619;50.140;8.518;2024-02-14T02:59:34;10.07;;;5.53;;
22904;SDS011;11619;50.140;8.518;2024-02-14T03:02:02;7.05;;;5.13;;
22904;SDS011;11619;50.140;8.518;2024-02-14T03:04:29;11.63;;;5.93;;
22904;SDS011;11619;50.140;8.518;2024-02-14T03:07:17;7.47;;;4.90;;
22904;SDS011;11619;50.140;8.518;2024-02-14T03:09:43;11.40;;;5.45;;
22904;SDS011;11619;50.140;8.518;2024-02-14T03:12:10;8.73;;;5.35;;
22904;SDS011;11619;50.140;8.518;2024-02-14T03:14:37;7.97;;;5.18;;
22904;SDS011;11619;50.140;8.518;2024-02-14T03:17:03;9.63;;;5.13;;
22904;SDS011;11619;50.140;8.518;2024-02-14T03:19:30;8.13;;;5.32;;
22904;SDS011;11619;50.140;8.518;2024-02-14T03:21:57;7.68;;;4.47;;
22904;SDS011;11619;50.140;8.518;2024-02-14T03:24:23;8.55;;;5.20;;
22904;SDS011;11619;50.140;8.518;2024-02-14T03:26:53;7.22;;;5.35;;
22904;SDS011;11619;50.140;8.518;2024-02-14T03:29:20;9.38;;;5.00;;
22904;SDS011;11619;50.140;8.518;2024-02-14T03:31:47;7.47;;;4.93;;
22904;SDS011;11619;50.140;8.518;2024-02-14T03:34:14;5.88;;;4.80;;
22904;SDS011;11619;50.140;8.518;2024-02-14T03:36:40;8.70;;;4.85;;
22904;SDS011;11619;50.140;8.518;2024-02-14T03:39:08;6.28;;;4.88;;
22904;SDS011;11619;50.140;8.518;2024-02-14T03:41:35;14.07;;;5.82;;
22904;SDS011;11619;50.140;8.518;2024-02-14T03:44:03;11.25;;;5.50;;
22904;SDS011;11619;50.140;8.518;2024-02-14T03:46:30;6.35;;;4.60;;
22904;SDS011;11619;50.140;8.518;2024-02-14T03:48:56;6.68;;;4.82;;
22904;SDS011;11619;50.140;8.518;2024-02-14T03:51:23;11.15;;;5.38;;
22904;SDS011;11619;50.140;8.518;2024-02-14T03:53:50;4.95;;;4.28;;
22904;SDS011;11619;50.140;8.518;2024-02-14T03:56:16;6.75;;;5.32;;
22904;SDS011;11619;50.140;8.518;2024-02-14T03:58:43;6.15;;;4.80;;
22904;SDS011;11619;50.140;8.518;2024-02-14T04:01:10;9.73;;;5.35;;
22904;SDS011;11619;50.140;8.518;2024-02-14T04:03:36;7.70;;;5.07;;
22904;SDS011;11619;50.140;8.518;2024-02-14T04:06:03;13.60;;;5.22;;
22904;SDS011;11619;50.140;8.518;2024-02-14T04:08:30;6.55;;;4.65;;
22904;SDS011;11619;50.140;8.518;2024-02-14T04:10:56;7.60;;;4.75;;
22904;SDS011;11619;50.140;8.518;2024-02-14T04:13:23;8.15;;;5.07;;
22904;SDS011;11619;50.140;8.518;2024-02-14T04:15:49;7.35;;;4.75;;
22904;SDS011;11619;50.140;8.518;2024-02-14T04:18:16;5.80;;;4.85;;
22904;SDS011;11619;50.140;8.518;2024-02-14T04:20:44;8.82;;;5.07;;
22904;SDS011;11619;50.140;8.518;2024-02-14T04:23:11;6.28;;;5.03;;
22904;SDS011;11619;50.140;8.518;2024-02-14T04:25:37;12.25;;;4.95;;
22904;SDS011;11619;50.140;8.518;2024-02-14T04:28:04;8.73;;;5.20;;
22904;SDS011;11619;50.140;8.518;2024-02-14T04:30:31;8.23;;;5.32;;
22904;SDS011;11619;50.140;8.518;2024-02-14T04:32:58;10.32;;;5.30;;
22904;SDS011;11619;50.140;8.518;2024-02-14T04:35:24;7.18;;;4.43;;
22904;SDS011;11619;50.140;8.518;2024-02-14T04:37:51;6.57;;;4.80;;
22904;SDS011;11619;50.140;8.518;2024-02-14T04:40:18;7.05;;;5.00;;
22904;SDS011;11619;50.140;8.518;2024-02-14T04:42:46;8.73;;;5.82;;
22904;SDS011;11619;50.140;8.518;2024-02-14T04:45:12;8.63;;;5.63;;
22904;SDS011;11619;50.140;8.518;2024-02-14T04:47:40;10.25;;;5.90;;
22904;SDS011;11619;50.140;8.518;2024-02-14T04:50:06;7.78;;;5.10;;
22904;SDS011;11619;50.140;8.518;2024-02-14T04:52:33;9.05;;;5.43;;
22904;SDS011;11619;50.140;8.518;2024-02-14T04:55:00;7.63;;;5.07;;
22904;SDS011;11619;50.140;8.518;2024-02-14T04:57:26;7.18;;;5.55;;
22904;SDS011;11619;50.140;8.518;2024-02-14T04:59:53;11.15;;;5.85;;
22904;SDS011;11619;50.140;8.518;2024-02-14T05:02:19;7.93;;;5.70;;
22904;SDS011;11619;50.140;8.518;2024-02-14T05:04:46;6.80;;;5.45;;
22904;SDS011;11619;50.140;8.518;2024-02-14T05:07:12;7.93;;;5.03;;
22904;SDS011;11619;50.140;8.518;2024-02-14T05:09:39;7.93;;;5.45;;
22904;SDS011;11619;50.140;8.518;2024-02-14T05:12:06;12.05;;;6.63;;
22904;SDS011;11619;50.140;8.518;2024-02-14T05:14:40;13.95;;;9.00;;
22904;SDS011;11619;50.140;8.518;2024-02-14T05:18:10;14.63;;;10.40;;
22904;SDS011;11619;50.140;8.518;2024-02-14T05:20:37;16.63;;;12.20;;
22904;SDS011;11619;50.140;8.518;2024-02-14T05:23:04;13.80;;;11.60;;
22904;SDS011;11619;50.140;8.518;2024-02-14T05:25:35;10.55;;;8.55;;
22904;SDS011;11619;50.140;8.518;2024-02-14T05:39:19;8.38;;;5.88;;
22904;SDS011;11619;50.140;8.518;2024-02-14T05:42:37;7.47;;;5.35;;
22904;SDS011;11619;50.140;8.518;2024-02-14T05:45:04;9.55;;;6.35;;
22904;SDS011;11619;50.140;8.518;2024-02-14T05:47:32;10.50;;;6.68;;
22904;SDS011;11619;50.140;8.518;2024-02-14T05:49:59;10.55;;;5.88;;
22904;SDS011;11619;50.140;8.518;2024-02-14T05:52:25;7.32;;;5.72;;
22904;SDS011;11619;50.140;8.518;2024-02-14T05:54:52;8.73;;;5.97;;
22904;SDS011;11619;50.140;8.518;2024-02-14T05:57:20;7.68;;;5.88;;
22904;SDS011;11619;50.140;8.518;2024-02-14T05:59:46;9.77;;;5.75;;
22904;SDS011;11619;50.140;8.518;2024-02-14T06:02:13;9.25;;;5.75;;
22904;SDS011;11619;50.140;8.518;2024-02-14T06:05:16;9.20;;;5.82;;
22904;SDS011;11619;50.140;8.518;2024-02-14T06:08:32;7.38;;;5.45;;
22904;SDS011;11619;50.140;8.518;2024-02-14T06:10:59;8.57;;;5.90;;
22904;SDS011;11619;50.140;8.518;2024-02-14T06:13:25;11.45;;;5.88;;
22904;SDS011;11619;50.140;8.518;2024-02-14T06:15:52;8.90;;;5.55;;
22904;SDS011;11619;50.140;8.518;2024-02-14T06:18:18;7.78;;;4.97;;
22904;SDS011;11619;50.140;8.518;2024-02-14T06:20:45;10.15;;;5.90;;
22904;SDS011;11619;50.140;8.518;2024-02-14T06:23:13;8.40;;;5.28;;
22904;SDS011;11619;50.140;8.518;2024-02-14T06:25:39;7.78;;;5.32;;
22904;SDS011;11619;50.140;8.518;2024-02-14T06:28:06;7.10;;;5.47;;
22904;SDS011;11619;50.140;8.518;2024-02-14T06:30:32;7.80;;;5.22;;
22904;SDS011;11619;50.140;8.518;2024-02-14T06:32:59;5.72;;;5.07;;
22904;SDS011;11619;50.140;8.518;2024-02-14T06:35:27;8.82;;;5.70;;
22904;SDS011;11619;50.140;8.518;2024-02-14T06:37:55;8.23;;;5.13;;
22904;SDS011;11619;50.140;8.518;2024-02-14T06:40:30;5.40;;;4.90;;
22904;SDS011;11619;50.140;8.518;2024-02-14T06:42:56;9.45;;;5.70;;
22904;SDS011;11619;50.140;8.518;2024-02-14T06:45:24;8.00;;;5.25;;
22904;SDS011;11619;50.140;8.518;2024-02-14T06:47:51;8.85;;;5.88;;
22904;SDS011;11619;50.140;8.518;2024-02-14T06:50:17;8.90;;;5.38;;
22904;SDS011;11619;50.140;8.518;2024-02-14T06:52:44;7.25;;;4.40;;
22904;SDS011;11619;50.140;8.518;2024-02-14T06:55:10;7.22;;;4.50;;
22904;SDS011;11619;50.140;8.518;2024-02-14T06:57:38;7.60;;;4.63;;
22904;SDS011;11619;50.140;8.518;2024-02-14T07:00:05;7.72;;;5.28;;
22904;SDS011;11619;50.140;8.518;2024-02-14T07:02:33;8.15;;;5.13;;
22904;SDS011;11619;50.140;8.518;2024-02-14T07:04:59;8.90;;;5.43;;
22904;SDS011;11619;50.140;8.518;2024-02-14T07:07:26;9.02;;;5.10;;
22904;SDS011;11619;50.140;8.518;2024-02-14T07:09:53;9.25;;;5.10;;
22904;SDS011;11619;50.140;8.518;2024-02-14T07:12:20;5.90;;;4.90;;
22904;SDS011;11619;50.140;8.518;2024-02-14T07:14:46;8.70;;;5.30;;
22904;SDS011;11619;50.140;8.518;2024-02-14T07:17:13;6.55;;;4.22;;
22904;SDS011;11619;50.140;8.518;2024-02-14T07:19:40;9.35;;;4.70;;
22904;SDS011;11619;50.140;8.518;2024-02-14T07:22:08;8.02;;;5.20;;
22904;SDS011;11619;50.140;8.518;2024-02-14T07:24:35;7.78;;;5.35;;
22904;SDS011;11619;50.140;8.518;2024-02-14T07:27:02;7.75;;;4.93;;
22904;SDS011;11619;50.140;8.518;2024-02-14T07:29:28;8.88;;;5.05;;
22904;SDS011;11619;50.140;8.518;2024-02-14T07:31:55;8.23;;;5.15;;
22904;SDS011;11619;50.140;8.518;2024-02-14T07:34:25;7.20;;;5.43;;
22904;SDS011;11619;50.140;8.518;2024-02-14T07:36:52;8.65;;;5.30;;
22904;SDS011;11619;50.140;8.518;2024-02-14T07:39:18;8.68;;;5.22;;
22904;SDS011;11619;50.140;8.518;2024-02-14T07:41:45;7.30;;;4.93;;
22904;SDS011;11619;50.140;8.518;2024-02-14T07:44:12;6.68;;;5.07;;
22904;SDS011;11619;50.140;8.518;2024-02-14T07:46:39;13.52;;;5.57;;
22904;SDS011;11619;50.140;8.518;2024-02-14T07:49:05;8.30;;;5.20;;
22904;SDS011;11619;50.140;8.518;2024-02-14T07:51:33;7.32;;;4.53;;
22904;SDS011;11619;50.140;8.518;2024-02-14T07:54:05;6.22;;;4.75;;
22904;SDS011;11619;50.140;8.518;2024-02-14T07:56:32;5.68;;;4.45;;
22904;SDS011;11619;50.140;8.518;2024-02-14T07:58:58;8.05;;;5.22;;
22904;SDS011;11619;50.140;8.518;2024-02-14T08:01:26;7.25;;;4.65;;
22904;SDS011;11619;50.140;8.518;2024-02-14T08:03:53;9.10;;;4.65;;
22904;SDS011;11619;50.140;8.518;2024-02-14T08:06:19;6.53;;;4.53;;
22904;SDS011;11619;50.140;8.518;2024-02-14T08:08:46;9.75;;;5.03;;
22904;SDS011;11619;50.140;8.518;2024-02-14T08:11:15;8.63;;;5.00;;
22904;SDS011;11619;50.140;8.518;2024-02-14T08:13:41;8.05;;;4.45;;
22904;SDS011;11619;50.140;8.518;2024-02-14T08:16:08;12.10;;;5.25;;
22904;SDS011;11619;50.140;8.518;2024-02-14T08:18:34;9.10;;;4.72;;
22904;SDS011;11619;50.140;8.518;2024-02-14T08:21:01;6.75;;;4.65;;
22904;SDS011;11619;50.140;8.518;2024-02-14T08:23:28;7.10;;;4.63;;
22904;SDS011;11619;50.140;8.518;2024-02-14T08:25:54;7.57;;;4.25;;
22904;SDS011;11619;50.140;8.518;2024-02-14T08:28:21;8.07;;;4.40;;
22904;SDS011;11619;50.140;8.518;2024-02-14T08:30:47;7.32;;;4.35;;
22904;SDS011;11619;50.140;8.518;2024-02-14T08:33:14;8.02;;;3.88;;
22904;SDS011;11619;50.140;8.518;2024-02-14T08:35:40;6.43;;;4.38;;
22904;SDS011;11619;50.140;8.518;2024-02-14T08:38:09;7.03;;;4.15;;
22904;SDS011;11619;50.140;8.518;2024-02-14T08:40:35;5.63;;;3.75;;
22904;SDS011;11619;50.140;8.518;2024-02-14T08:43:03;6.68;;;3.90;;
22904;SDS011;11619;50.140;8.518;2024-02-14T08:45:31;6.82;;;4.18;;
22904;SDS011;11619;50.140;8.518;2024-02-14T08:47:59;7.10;;;3.92;;
22904;SDS011;11619;50.140;8.518;2024-02-14T08:50:26;9.20;;;3.92;;
22904;SDS011;11619;50.140;8.518;2024-02-14T08:52:52;8.27;;;4.55;;
22904;SDS011;11619;50.140;8.518;2024-02-14T08:55:19;8.18;;;3.70;;
22904;SDS011;11619;50.140;8.518;2024-02-14T08:57:45;6.80;;;3.83;;
22904;SDS011;11619;50.140;8.518;2024-02-14T09:00:14;8.95;;;4.25;;
22904;SDS011;11619;50.140;8.518;2024-02-14T09:02:41;10.02;;;3.55;;
22904;SDS011;11619;50.140;8.518;2024-02-14T09:05:08;9.98;;;3.28;;
22904;SDS011;11619;50.140;8.518;2024-02-14T09:07:35;5.28;;;3.55;;
22904;SDS011;11619;50.140;8.518;2024-02-14T09:10:03;7.47;;;4.03;;
22904;SDS011;11619;50.140;8.518;2024-02-14T09:12:31;9.23;;;4.35;;
22904;SDS011;11619;50.140;8.518;2024-02-14T09:14:58;8.45;;;3.63;;
22904;SDS011;11619;50.140;8.518;2024-02-14T09:17:25;6.22;;;3.65;;
22904;SDS011;11619;50.140;8.518;2024-02-14T09:19:51;7.25;;;3.28;;
22904;SDS011;11619;50.140;8.518;2024-02-14T09:22:18;5.63;;;3.47;;
22904;SDS011;11619;50.140;8.518;2024-02-14T09:24:47;5.47;;;3.42;;
22904;SDS011;11619;50.140;8.518;2024-02-14T09:27:33;6.43;;;3.17;;
22904;SDS011;11619;50.140;8.518;2024-02-14T09:33:29;3.97;;;3.10;;
22904;SDS011;11619;50.140;8.518;2024-02-14T09:35:56;5.35;;;3.45;;
22904;SDS011;11619;50.140;8.518;2024-02-14T09:38:22;8.15;;;3.28;;
22904;SDS011;11619;50.140;8.518;2024-02-14T09:40:58;10.07;;;3.38;;
22904;SDS011;11619;50.140;8.518;2024-02-14T09:43:36;3.45;;;3.13;;
22904;SDS011;11619;50.140;8.518;2024-02-14T09:46:05;6.72;;;3.35;;
22904;SDS011;11619;50.140;8.518;2024-02-14T09:48:33;4.00;;;3.00;;
22904;SDS011;11619;50.140;8.518;2024-02-14T09:51:02;6.85;;;4.03;;
22904;SDS011;11619;50.140;8.518;2024-02-14T09:53:28;5.60;;;3.15;;
22904;SDS011;11619;50.140;8.518;2024-02-14T09:55:55;5.88;;;3.20;;
22904;SDS011;11619;50.140;8.518;2024-02-14T09:58:22;4.90;;;2.80;;
22904;SDS011;11619;50.140;8.518;2024-02-14T10:00:49;4.53;;;3.00;;
22904;SDS011;11619;50.140;8.518;2024-02-14T10:03:17;6.43;;;3.55;;
22904;SDS011;11619;50.140;8.518;2024-02-14T10:05:44;4.97;;;3.28;;
22904;SDS011;11619;50.140;8.518;2024-02-14T10:08:10;8.25;;;3.80;;
22904;SDS011;11619;50.140;8.518;2024-02-14T10:10:37;7.63;;;4.53;;
22904;SDS011;11619;50.140;8.518;2024-02-14T10:13:05;6.47;;;3.97;;
22904;SDS011;11619;50.140;8.518;2024-02-14T10:15:35;11.80;;;4.35;;
22904;SDS011;11619;50.140;8.518;2024-02-14T10:18:02;7.13;;;3.90;;
22904;SDS011;11619;50.140;8.518;2024-02-14T10:20:29;6.28;;;3.78;;
22904;SDS011;11619;50.140;8.518;2024-02-14T10:23:00;7.28;;;4.10;;
22904;SDS011;11619;50.140;8.518;2024-02-14T10:25:29;6.18;;;3.95;;
22904;SDS011;11619;50.140;8.518;2024-02-14T10:28:03;6.13;;;3.97;;
22904;SDS011;11619;50.140;8.518;2024-02-14T10:30:30;7.70;;;4.30;;
22904;SDS011;11619;50.140;8.518;2024-02-14T10:32:58;14.00;;;4.70;;
22904;SDS011;11619;50.140;8.518;2024-02-14T10:35:38;7.47;;;3.88;;
22904;SDS011;11619;50.140;8.518;2024-02-14T10:38:07;7.93;;;3.83;;
22904;SDS011;11619;50.140;8.518;2024-02-14T10:40:36;5.25;;;3.58;;
22904;SDS011;11619;50.140;8.518;2024-02-14T10:43:05;5.63;;;3.72;;
22904;SDS011;11619;50.140;8.518;2024-02-14T10:45:32;4.57;;;3.30;;
22904;SDS011;11619;50.140;8.518;2024-02-14T10:47:59;5.50;;;3.53;;
22904;SDS011;11619;50.140;8.518;2024-02-14T10:50:27;4.53;;;3.38;;
22904;SDS011;11619;50.140;8.518;2024-02-14T10:52:56;7.10;;;3.80;;
22904;SDS011;11619;50.140;8.518;2024-02-14T10:55:24;7.20;;;3.63;;
22904;SDS011;11619;50.140;8.518;2024-02-14T10:57:53;3.60;;;3.30;;
22904;SDS011;11619;50.140;8.518;2024-02-14T11:00:51;6.22;;;3.70;;
22904;SDS011;11619;50.140;8.518;2024-02-14T11:03:18;7.28;;;3.45;;
22904;SDS011;11619;50.140;8.518;2024-02-14T11:05:45;10.57;;;4.38;;
22904;SDS011;11619;50.140;8.518;2024-02-14T11:08:18;4.70;;;3.45;;
22904;SDS011;11619;50.140;8.518;2024-02-14T11:13:19;10.00;;;3.65;;
22904;SDS011;11619;50.140;8.518;2024-02-14T11:15:46;8.25;;;3.83;;
22904;SDS011;11619;50.140;8.518;2024-02-14T11:18:24;5.95;;;3.65;;
22904;SDS011;11619;50.140;8.518;2024-02-14T11:20:51;5.95;;;3.20;;
22904;SDS011;11619;50.140;8.518;2024-02-14T11:23:21;4.38;;;3.33;;
22904;SDS011;11619;50.140;8.518;2024-02-14T11:25:48;5.93;;;3.90;;
22904;SDS011;11619;50.140;8.518;2024-02-14T11:28:16;5.57;;;3.58;;
22904;SDS011;11619;50.140;8.518;2024-02-14T11:30:43;5.88;;;2.97;;
22904;SDS011;11619;50.140;8.518;2024-02-14T11:33:12;4.78;;;3.05;;
22904;SDS011;11619;50.140;8.518;2024-02-14T11:35:41;5.55;;;3.15;;
22904;SDS011;11619;50.140;8.518;2024-02-14T11:38:08;6.50;;;3.53;;
22904;SDS011;11619;50.140;8.518;2024-02-14T11:40:36;6.35;;;3.35;;
22904;SDS011;11619;50.140;8.518;2024-02-14T11:43:05;2.58;;;2.38;;
22904;SDS011;11619;50.140;8.518;2024-02-14T11:45:36;3.05;;;2.50;;
22904;SDS011;11619;50.140;8.518;2024-02-14T11:48:05;3.58;;;2.17;;
22904;SDS011;11619;50.140;8.518;2024-02-14T11:50:32;3.47;;;2.60;;
22904;SDS011;11619;50.140;8.518;2024-02-14T11:52:59;5.13;;;2.28;;
22904;SDS011;11619;50.140;8.518;2024-02-14T11:55:29;2.88;;;2.22;;
22904;SDS011;11619;50.140;8.518;2024-02-14T11:57:56;4.55;;;2.40;;
22904;SDS011;11619;50.140;8.518;2024-02-14T12:00:23;4.82;;;3.03;;
22904;SDS011;11619;50.140;8.518;2024-02-14T12:02:50;4.65;;;2.15;;
22904;SDS011;11619;50.140;8.518;2024-02-14T12:05:18;5.70;;;2.88;;
22904;SDS011;11619;50.140;8.518;2024-02-14T12:07:45;3.20;;;2.45;;
22904;SDS011;11619;50.140;8.518;2024-02-14T12:10:12;4.35;;;2.67;;
22904;SDS011;11619;50.140;8.518;2024-02-14T12:12:39;3.92;;;1.65;;
22904;SDS011;11619;50.140;8.518;2024-02-14T12:15:06;4.57;;;2.22;;
22904;SDS011;11619;50.140;8.518;2024-02-14T12:17:35;2.55;;;2.08;;
22904;SDS011;11619;50.140;8.518;2024-02-14T12:20:07;2.97;;;2.15;;
22904;SDS011;11619;50.140;8.518;2024-02-14T12:22:35;2.22;;;1.90;;
22904;SDS011;11619;50.140;8.518;2024-02-14T12:25:03;3.45;;;2.25;;
22904;SDS011;11619;50.140;8.518;2024-02-14T12:27:32;2.97;;;2.40;;
22904;SDS011;11619;50.140;8.518;2024-02-14T12:30:04;3.15;;;2.30;;
22904;SDS011;11619;50.140;8.518;2024-02-14T12:32:33;2.83;;;2.40;;
22904;SDS011;11619;50.140;8.518;2024-02-14T12:34:59;3.70;;;2.30;;
22904;SDS011;11619;50.140;8.518;2024-02-14T12:37:26;4.22;;;2.60;;
22904;SDS011;11619;50.140;8.518;2024-02-14T12:39:53;3.22;;;2.90;;
22904;SDS011;11619;50.140;8.518;2024-02-14T12:42:20;4.15;;;2.97;;
22904;SDS011;11619;50.140;8.518;2024-02-14T12:44:51;3.95;;;3.15;;
22904;SDS011;11619;50.140;8.518;2024-02-14T12:47:20;3.63;;;3.30;;
22904;SDS011;11619;50.140;8.518;2024-02-14T12:49:48;8.60;;;4.72;;
22904;SDS011;11619;50.140;8.518;2024-02-14T12:52:15;5.35;;;4.70;;
22904;SDS011;11619;50.140;8.518;2024-02-14T12:54:43;7.63;;;5.97;;
22904;SDS011;11619;50.140;8.518;2024-02-14T12:57:09;5.97;;;4.93;;
22904;SDS011;11619;50.140;8.518;2024-02-14T12:59:37;11.98;;;9.05;;
22904;SDS011;11619;50.140;8.518;2024-02-14T13:02:04;5.35;;;4.70;;
22904;SDS011;11619;50.140;8.518;2024-02-14T13:04:33;9.18;;;4.85;;
22904;SDS011;11619;50.140;8.518;2024-02-14T13:06:59;5.15;;;4.43;;
22904;SDS011;11619;50.140;8.518;2024-02-14T13:09:26;4.72;;;3.10;;
22904;SDS011;11619;50.140;8.518;2024-02-14T13:11:52;5.95;;;4.20;;
22904;SDS011;11619;50.140;8.518;2024-02-14T13:14:19;4.63;;;3.20;;
22904;SDS011;11619;50.140;8.518;2024-02-14T13:16:45;6.90;;;3.65;;
22904;SDS011;11619;50.140;8.518;2024-02-14T13:19:12;6.93;;;4.90;;
22904;SDS011;11619;50.140;8.518;2024-02-14T13:21:43;10.10;;;4.88;;
22904;SDS011;11619;50.140;8.518;2024-02-14T13:24:11;5.80;;;4.97;;
22904;SDS011;11619;50.140;8.518;2024-02-14T13:26:39;3.88;;;3.25;;
22904;SDS011;11619;50.140;8.518;2024-02-14T13:29:06;3.42;;;3.13;;
22904;SDS011;11619;50.140;8.518;2024-02-14T13:31:33;7.93;;;3.88;;
22904;SDS011;11619;50.140;8.518;2024-02-14T13:33:59;6.45;;;4.15;;
22904;SDS011;11619;50.140;8.518;2024-02-14T13:36:26;5.38;;;3.20;;
22904;SDS011;11619;50.140;8.518;2024-02-14T13:38:53;5.03;;;3.83;;
22904;SDS011;11619;50.140;8.518;2024-02-14T13:41:20;3.60;;;3.30;;
22904;SDS011;11619;50.140;8.518;2024-02-14T13:43:46;4.90;;;3.95;;
22904;SDS011;11619;50.140;8.518;2024-02-14T13:46:14;5.70;;;3.50;;
22904;SDS011;11619;50.140;8.518;2024-02-14T13:48:41;4.60;;;3.97;;
22904;SDS011;11619;50.140;8.518;2024-02-14T13:51:07;5.85;;;3.83;;
22904;SDS011;11619;50.140;8.518;2024-02-14T13:53:36;5.50;;;4.32;;
22904;SDS011;11619;50.140;8.518;2024-02-14T13:56:03;6.88;;;4.63;;
22904;SDS011;11619;50.140;8.518;2024-02-14T13:58:30;7.45;;;4.50;;
22904;SDS011;11619;50.140;8.518;2024-02-14T14:00:56;10.48;;;4.80;;
22904;SDS011;11619;50.140;8.518;2024-02-14T14:03:25;5.72;;;4.10;;
22904;SDS011;11619;50.140;8.518;2024-02-14T14:05:52;4.22;;;3.83;;
22904;SDS011;11619;50.140;8.518;2024-02-14T14:08:19;5.32;;;3.97;;
22904;SDS011;11619;50.140;8.518;2024-02-14T14:10:45;4.40;;;3.67;;
22904;SDS011;11619;50.140;8.518;2024-02-14T14:13:12;5.50;;;4.43;;
22904;SDS011;11619;50.140;8.518;2024-02-14T14:15:40;4.90;;;4.40;;
22904;SDS011;11619;50.140;8.518;2024-02-14T14:18:07;5.68;;;4.20;;
22904;SDS011;11619;50.140;8.518;2024-02-14T14:20:34;5.80;;;4.45;;
22904;SDS011;11619;50.140;8.518;2024-02-14T14:23:01;6.63;;;4.72;;
22904;SDS011;11619;50.140;8.518;2024-02-14T14:25:29;5.40;;;4.63;;
22904;SDS011;11619;50.140;8.518;2024-02-14T14:28:00;6.78;;;4.47;;
22904;SDS011;11619;50.140;8.518;2024-02-14T14:30:28;6.18;;;4.78;;
22904;SDS011;11619;50.140;8.518;2024-02-14T14:32:57;8.00;;;4.75;;
22904;SDS011;11619;50.140;8.518;2024-02-14T14:35:24;5.15;;;4.50;;
22904;SDS011;11619;50.140;8.518;2024-02-14T14:37:51;5.47;;;4.65;;
22904;SDS011;11619;50.140;8.518;2024-02-14T14:40:18;6.72;;;4.60;;
22904;SDS011;11619;50.140;8.518;2024-02-14T14:42:44;5.22;;;4.68;;
22904;SDS011;11619;50.140;8.518;2024-02-14T14:45:10;5.95;;;4.40;;
22904;SDS011;11619;50.140;8.518;2024-02-14T14:47:37;6.25;;;4.15;;
22904;SDS011;11619;50.140;8.518;2024-02-14T14:50:05;5.40;;;4.88;;
22904;SDS011;11619;50.140;8.518;2024-02-14T14:52:33;5.47;;;4.95;;
22904;SDS011;11619;50.140;8.518;2024-02-14T14:55:00;6.03;;;4.88;;
22904;SDS011;11619;50.140;8.518;2024-02-14T14:57:27;5.50;;;4.97;;
22904;SDS011;11619;50.140;8.518;2024-02-14T14:59:53;7.63;;;4.97;;
22904;SDS011;11619;50.140;8.518;2024-02-14T15:02:20;6.60;;;5.25;;
22904;SDS011;11619;50.140;8.518;2024-02-14T15:04:48;7.38;;;5.00;;
22904;SDS011;11619;50.140;8.518;2024-02-14T15:07:15;5.78;;;5.18;;